createdAt,value
2019-05-02T00:01:37.704Z,14.10
2019-05-02T00:04:07.323Z,12.15
2019-05-02T00:06:38.018Z,13.60
2019-05-02T00:09:11.025Z,12.10
2019-05-02T00:11:40.594Z,14.50
2019-05-02T00:14:10.223Z,13.80
2019-05-02T00:16:39.812Z,13.13
2019-05-02T00:19:13.938Z,13.10
2019-05-02T00:21:43.027Z,13.27
2019-05-02T00:24:13.947Z,15.80
2019-05-02T00:26:43.525Z,12.00
2019-05-02T00:29:13.051Z,13.07
2019-05-02T00:31:47.009Z,13.97
2019-05-02T00:34:14.593Z,14.80
2019-05-02T00:36:44.593Z,14.65
2019-05-02T00:39:15.234Z,13.55
2019-05-02T00:41:44.770Z,13.13
2019-05-02T00:44:14.634Z,15.08
2019-05-02T00:46:44.763Z,14.55
2019-05-02T00:49:14.883Z,14.75
2019-05-02T00:51:44.783Z,13.90
2019-05-02T00:54:19.143Z,14.65
2019-05-02T00:56:46.546Z,14.80
2019-05-02T00:59:16.202Z,16.57
2019-05-02T01:01:52.635Z,14.50
2019-05-02T01:04:47.236Z,12.90
2019-05-02T01:07:20.487Z,14.13
2019-05-02T01:09:48.101Z,16.23
2019-05-02T01:12:26.142Z,13.73
2019-05-02T01:14:49.273Z,14.10
2019-05-02T01:17:18.998Z,14.03
2019-05-02T01:19:51.489Z,14.30
2019-05-02T01:22:19.965Z,14.73
2019-05-02T01:24:49.503Z,14.20
2019-05-02T01:27:42.585Z,16.33
2019-05-02T01:30:30.331Z,13.83
2019-05-02T01:33:25.088Z,13.30
2019-05-02T01:36:19.891Z,14.63
2019-05-02T01:38:50.377Z,13.60
2019-05-02T01:41:23.944Z,13.90
2019-05-02T01:43:54.957Z,13.70
2019-05-02T01:46:24.194Z,14.50
2019-05-02T01:48:54.340Z,14.33
2019-05-02T01:51:24.129Z,14.37
2019-05-02T01:53:53.994Z,13.70
2019-05-02T01:56:23.655Z,14.17
2019-05-02T01:58:57.620Z,12.80
2019-05-02T02:01:24.383Z,15.43
2019-05-02T02:03:53.922Z,13.97
2019-05-02T02:06:23.522Z,11.40
2019-05-02T02:08:53.151Z,14.00
2019-05-02T02:11:22.895Z,12.85
2019-05-02T02:13:52.438Z,13.13
2019-05-02T02:16:22.026Z,12.77
2019-05-02T02:18:58.998Z,12.50
2019-05-02T02:21:36.138Z,11.70
2019-05-02T02:24:09.895Z,11.80
2019-05-02T02:26:39.494Z,12.47
2019-05-02T02:29:09.394Z,13.00
2019-05-02T02:31:46.425Z,13.37
2019-05-02T02:34:10.182Z,12.90
2019-05-02T02:36:39.716Z,12.00
2019-05-02T02:39:14.188Z,13.13
2019-05-02T02:41:45.237Z,13.50
2019-05-02T02:44:21.938Z,14.10
2019-05-02T02:46:51.955Z,13.60
2019-05-02T02:49:24.360Z,14.57
2019-05-02T02:51:58.094Z,14.30
2019-05-02T02:54:23.920Z,15.20
2019-05-02T02:56:53.457Z,13.00
2019-05-02T02:59:26.150Z,14.07
2019-05-02T03:01:54.182Z,11.43
2019-05-02T03:04:23.701Z,12.70
2019-05-02T03:06:53.217Z,12.90
2019-05-02T03:09:26.564Z,12.40
2019-05-02T03:12:12.199Z,11.97
2019-05-02T03:14:47.510Z,12.00
2019-05-02T03:17:20.634Z,12.05
2019-05-02T03:19:54.367Z,11.63
2019-05-02T03:22:20.770Z,13.10
2019-05-02T03:24:50.347Z,11.90
2019-05-02T03:27:19.876Z,12.30
2019-05-02T03:29:49.977Z,10.63
2019-05-02T03:32:31.911Z,11.90
2019-05-02T03:34:53.442Z,11.80
2019-05-02T03:37:21.984Z,11.90
2019-05-02T03:39:57.585Z,11.50
2019-05-02T03:42:24.180Z,10.98
2019-05-02T03:44:56.203Z,12.40
2019-05-02T03:47:25.107Z,13.17
2019-05-02T03:49:54.681Z,12.13
2019-05-02T03:52:24.206Z,11.13
2019-05-02T03:54:53.738Z,11.80
2019-05-02T03:57:32.033Z,11.47
2019-05-02T03:59:54.579Z,10.20
2019-05-02T04:02:25.197Z,11.43
2019-05-02T04:05:00.492Z,11.07
2019-05-02T04:07:26.094Z,12.43
2019-05-02T04:09:55.688Z,11.93
2019-05-02T04:12:25.569Z,13.23
2019-05-02T04:14:56.001Z,11.40
2019-05-02T04:17:28.640Z,13.00
2019-05-02T04:19:57.809Z,10.43
2019-05-02T04:22:27.408Z,12.27
2019-05-02T04:24:57.285Z,13.20
2019-05-02T04:27:27.800Z,11.87
2019-05-02T04:30:09.751Z,11.50
2019-05-02T04:32:29.882Z,11.27
2019-05-02T04:34:59.434Z,14.07
2019-05-02T04:37:34.494Z,11.85
2019-05-02T04:40:03.192Z,12.10
2019-05-02T04:42:31.428Z,13.10
2019-05-02T04:45:21.170Z,12.63
2019-05-02T04:47:32.167Z,12.50
2019-05-02T04:50:10.215Z,13.10
2019-05-02T04:52:38.525Z,12.43
2019-05-02T04:55:14.827Z,14.15
2019-05-02T04:57:46.247Z,12.20
2019-05-02T05:00:11.712Z,11.60
2019-05-02T05:02:40.674Z,11.70
2019-05-02T05:05:10.283Z,14.78
2019-05-02T05:07:44.496Z,13.43
2019-05-02T05:10:11.173Z,14.40
2019-05-02T05:12:41.833Z,12.80
2019-05-02T05:15:13.363Z,13.28
2019-05-02T05:17:42.852Z,12.87
2019-05-02T05:20:15.650Z,14.00
2019-05-02T05:22:44.418Z,13.40
2019-05-02T05:25:21.330Z,13.67
2019-05-02T05:27:52.662Z,15.10
2019-05-02T05:30:21.777Z,15.07
2019-05-02T05:32:51.285Z,13.13
2019-05-02T05:35:20.833Z,14.00
2019-05-02T05:37:53.082Z,15.20
2019-05-02T05:40:22.504Z,16.97
2019-05-02T05:42:53.025Z,11.77
2019-05-02T05:45:23.177Z,13.55
2019-05-02T05:47:57.600Z,13.57
2019-05-02T05:50:24.960Z,16.13
2019-05-02T05:52:54.479Z,15.40
2019-05-02T05:55:24.690Z,14.73
2019-05-02T05:58:00.041Z,14.23
2019-05-02T06:00:27.659Z,15.15
2019-05-02T06:03:10.159Z,14.10
2019-05-02T06:05:33.245Z,13.83
2019-05-02T06:08:00.011Z,15.83
2019-05-02T06:10:29.634Z,13.55
2019-05-02T06:12:59.515Z,14.93
2019-05-02T06:15:29.174Z,13.38
2019-05-02T06:17:59.950Z,14.63
2019-05-02T06:20:30.538Z,13.70
2019-05-02T06:23:01.384Z,14.53
2019-05-02T06:25:34.150Z,13.37
2019-05-02T06:28:05.268Z,13.07
2019-05-02T06:30:34.593Z,14.60
2019-05-02T06:33:04.111Z,13.40
2019-05-02T06:35:33.646Z,13.08
2019-05-02T06:38:04.127Z,15.90
2019-05-02T06:40:33.650Z,13.20
2019-05-02T06:43:04.393Z,13.20
2019-05-02T06:45:37.714Z,15.27
2019-05-02T06:48:06.380Z,15.47
2019-05-02T06:50:39.030Z,14.93
2019-05-02T06:53:09.533Z,13.40
2019-05-02T06:55:38.741Z,14.97
2019-05-02T06:58:09.440Z,14.30
2019-05-02T07:00:55.630Z,14.13
2019-05-02T07:03:11.639Z,14.73
2019-05-02T07:05:41.230Z,14.87
2019-05-02T07:08:11.592Z,14.35
2019-05-02T07:10:44.965Z,14.07
2019-05-02T07:13:15.513Z,14.38
2019-05-02T07:15:59.211Z,14.77
2019-05-02T07:18:30.397Z,14.70
2019-05-02T07:21:00.003Z,13.93
2019-05-02T07:23:29.746Z,14.83
2019-05-02T07:26:00.425Z,12.60
2019-05-02T07:28:30.249Z,13.60
2019-05-02T07:31:00.525Z,12.40
2019-05-02T07:33:32.258Z,15.98
2019-05-02T07:36:01.894Z,15.27
2019-05-02T07:38:31.422Z,15.33
2019-05-02T07:41:02.033Z,12.27
2019-05-02T07:43:31.537Z,15.20
2019-05-02T07:46:01.657Z,16.42
2019-05-02T07:48:31.163Z,14.57
2019-05-02T07:51:02.101Z,13.80
2019-05-02T07:53:31.593Z,14.43
2019-05-02T07:56:01.207Z,15.30
2019-05-02T07:58:30.803Z,15.60
2019-05-02T08:01:00.384Z,15.83
2019-05-02T08:03:33.638Z,14.30
2019-05-02T08:06:02.299Z,14.93
2019-05-02T08:08:31.958Z,14.75
2019-05-02T08:11:03.193Z,16.90
2019-05-02T08:13:32.820Z,15.00
2019-05-02T08:16:02.343Z,15.17
2019-05-02T08:18:31.843Z,15.93
2019-05-02T08:21:01.475Z,15.63
2019-05-02T08:23:31.059Z,14.93
2019-05-02T08:26:00.601Z,17.40
2019-05-02T08:28:35.833Z,16.47
2019-05-02T08:31:05.346Z,19.00
2019-05-02T08:33:36.003Z,17.37
2019-05-02T08:36:05.663Z,15.65
2019-05-02T08:38:35.348Z,17.70
2019-05-02T08:41:04.969Z,18.00
2019-05-02T08:43:34.557Z,17.70
2019-05-02T08:46:09.341Z,16.03
2019-05-02T08:48:41.151Z,16.73
2019-05-02T08:51:07.439Z,17.98
2019-05-02T08:53:36.942Z,17.20
2019-05-02T08:56:06.699Z,16.70
2019-05-02T08:58:36.202Z,16.00
2019-05-02T09:01:09.156Z,17.97
2019-05-02T09:03:54.673Z,17.00
2019-05-02T09:06:08.169Z,18.40
2019-05-02T09:08:37.681Z,16.83
2019-05-02T09:11:07.224Z,17.03
2019-05-02T09:13:36.739Z,18.20
2019-05-02T09:16:06.411Z,18.97
2019-05-02T09:18:40.601Z,14.57
2019-05-02T09:21:07.140Z,18.77
2019-05-02T09:23:37.248Z,17.20
2019-05-02T09:26:06.806Z,17.37
2019-05-02T09:28:36.323Z,14.27
2019-05-02T09:31:07.119Z,15.97
2019-05-02T09:33:41.173Z,14.83
2019-05-02T09:36:07.873Z,17.20
2019-05-02T09:38:37.402Z,16.63
2019-05-02T09:41:16.098Z,14.40
2019-05-02T09:43:39.259Z,15.70
2019-05-02T09:46:13.006Z,16.80
2019-05-02T09:48:42.735Z,17.47
2019-05-02T09:51:17.453Z,15.00
2019-05-02T09:53:44.442Z,14.70
2019-05-02T09:56:14.000Z,16.00
2019-05-02T09:58:49.067Z,15.30
2019-05-02T10:01:28.461Z,17.50
2019-05-02T10:03:57.981Z,16.40
2019-05-02T10:06:27.491Z,17.85
2019-05-02T10:08:57.272Z,16.57
2019-05-02T10:11:26.777Z,16.82
2019-05-02T10:13:56.310Z,15.80
2019-05-02T10:16:27.471Z,16.50
2019-05-02T10:19:00.392Z,14.93
2019-05-02T10:21:28.320Z,16.93
2019-05-02T10:23:59.224Z,15.97
2019-05-02T10:26:29.138Z,15.00
2019-05-02T10:28:58.697Z,15.83
2019-05-02T10:31:33.399Z,14.63
2019-05-02T10:34:02.245Z,14.13
2019-05-02T10:36:32.741Z,15.00
2019-05-02T10:39:02.432Z,17.10
2019-05-02T10:41:39.622Z,16.00
2019-05-02T10:44:04.740Z,15.57
2019-05-02T10:46:41.596Z,17.30
2019-05-02T10:49:22.724Z,16.90
2019-05-02T10:51:53.945Z,16.23
2019-05-02T10:54:27.873Z,16.67
2019-05-02T10:56:55.506Z,15.90
2019-05-02T10:59:25.128Z,16.20
2019-05-02T11:02:22.122Z,17.60
2019-05-02T11:04:54.653Z,17.17
2019-05-02T11:07:26.507Z,17.43
2019-05-02T11:09:57.235Z,17.60
2019-05-02T11:12:46.113Z,17.07
2019-05-02T11:15:32.615Z,17.07
2019-05-02T11:18:03.163Z,18.70
2019-05-02T11:20:32.756Z,16.63
2019-05-02T11:23:02.785Z,18.05
2019-05-02T11:25:32.294Z,18.00
2019-05-02T11:28:06.831Z,17.93
2019-05-02T11:30:33.229Z,16.85
2019-05-02T11:33:03.159Z,17.25
2019-05-02T11:35:33.868Z,16.70
2019-05-02T11:38:03.773Z,17.80
2019-05-02T11:40:33.290Z,20.80
2019-05-02T11:43:06.773Z,22.70
2019-05-02T11:45:34.947Z,22.67
2019-05-02T11:48:09.107Z,21.60
2019-05-02T11:50:35.764Z,20.37
2019-05-02T11:53:09.120Z,18.77
2019-05-02T11:55:36.621Z,19.77
2019-05-02T11:58:08.150Z,20.03
2019-05-02T12:00:39.744Z,20.53
2019-05-02T12:03:14.021Z,19.85
2019-05-02T12:05:44.049Z,20.10
2019-05-02T12:08:13.534Z,18.85
2019-05-02T12:10:43.142Z,18.40
2019-05-02T12:13:15.971Z,17.45
2019-05-02T12:15:44.502Z,19.10
2019-05-02T12:18:14.028Z,17.20
2019-05-02T12:20:43.561Z,20.33
2019-05-02T12:23:13.206Z,19.00
2019-05-02T12:25:42.751Z,19.67
2019-05-02T12:28:12.302Z,19.63
2019-05-02T12:30:42.135Z,20.73
2019-05-02T12:33:12.529Z,18.90
2019-05-02T12:35:43.217Z,21.17
2019-05-02T12:38:12.957Z,19.30
2019-05-02T12:40:44.042Z,17.67
2019-05-02T12:43:13.545Z,17.90
2019-05-02T12:45:44.069Z,18.87
2019-05-02T12:48:13.584Z,19.40
2019-05-02T12:50:43.546Z,21.50
2019-05-02T12:53:13.048Z,18.27
2019-05-02T12:55:42.563Z,19.20
2019-05-02T12:58:13.259Z,21.20
2019-05-02T13:00:43.277Z,17.52
2019-05-02T13:03:34.579Z,22.07
2019-05-02T13:06:04.120Z,20.07
2019-05-02T13:08:36.876Z,20.53
2019-05-02T13:11:17.920Z,20.70
2019-05-02T13:13:48.170Z,19.70
2019-05-02T13:16:18.289Z,20.32
2019-05-02T13:18:48.182Z,21.57
2019-05-02T13:21:23.613Z,20.30
2019-05-02T13:24:13.506Z,21.27
2019-05-02T13:26:42.775Z,20.57
2019-05-02T13:29:16.983Z,20.10
2019-05-02T13:32:18.768Z,19.60
2019-05-02T13:34:53.946Z,19.17
2019-05-02T13:37:24.966Z,20.72
2019-05-02T13:40:02.683Z,19.23
2019-05-02T13:42:33.825Z,23.40
2019-05-02T13:45:10.255Z,18.67
2019-05-02T13:47:39.879Z,20.03
2019-05-02T13:50:10.005Z,21.60
2019-05-02T13:52:39.596Z,20.30
2019-05-02T13:55:11.823Z,18.77
2019-05-02T13:57:46.902Z,19.90
2019-05-02T14:00:16.552Z,20.57
2019-05-02T14:02:46.573Z,18.00
2019-05-02T14:05:16.678Z,18.80
2019-05-02T14:07:55.700Z,19.37
2019-05-02T14:10:26.136Z,20.77
2019-05-02T14:12:58.444Z,23.07
2019-05-02T14:15:37.500Z,18.77
2019-05-02T14:18:07.165Z,22.83
2019-05-02T14:20:37.499Z,21.87
2019-05-02T14:23:07.098Z,21.57
2019-05-02T14:25:36.580Z,22.57
2019-05-02T14:28:06.175Z,23.23
2019-05-02T14:30:40.020Z,23.80
2019-05-02T14:33:13.168Z,22.00
2019-05-02T14:35:42.725Z,23.77
2019-05-02T14:38:16.054Z,21.40
2019-05-02T14:41:09.378Z,22.60
2019-05-02T14:43:56.042Z,22.87
2019-05-02T14:46:35.362Z,23.03
2019-05-02T14:48:57.739Z,23.47
2019-05-02T14:51:28.062Z,24.50
2019-05-02T14:54:03.659Z,24.67
2019-05-02T14:56:46.293Z,26.20
2019-05-02T14:59:17.892Z,24.93
2019-05-02T15:01:43.023Z,25.50
2019-05-02T15:04:13.590Z,25.17
2019-05-02T15:06:47.322Z,26.47
2019-05-02T15:09:16.675Z,29.30
2019-05-02T15:11:58.043Z,27.37
2019-05-02T15:14:32.899Z,24.77
2019-05-02T15:17:03.049Z,25.00
2019-05-02T15:19:33.180Z,26.43
2019-05-02T15:22:02.923Z,25.57
2019-05-02T15:24:36.092Z,24.67
2019-05-02T15:27:11.425Z,26.60
2019-05-02T15:29:34.889Z,26.33
2019-05-02T15:32:25.540Z,24.25
2019-05-02T15:35:13.092Z,26.10
2019-05-02T15:37:44.266Z,24.80
2019-05-02T15:42:52.214Z,26.27
2019-05-02T15:45:23.817Z,21.73
2019-05-02T15:47:53.251Z,21.45
2019-05-02T15:50:25.516Z,22.60
2019-05-02T15:53:02.755Z,21.27
2019-05-02T15:55:32.417Z,19.90
2019-05-02T15:58:03.574Z,17.70
2019-05-02T16:00:37.764Z,18.40
2019-05-02T16:03:07.328Z,15.00
2019-05-02T16:05:41.220Z,15.20
2019-05-02T16:08:08.814Z,13.90
2019-05-02T16:10:39.966Z,14.28
2019-05-02T16:13:13.481Z,13.70
2019-05-02T16:15:42.787Z,14.00
2019-05-02T16:18:12.844Z,12.60
2019-05-02T16:21:04.221Z,14.00
2019-05-02T16:23:29.447Z,12.70
2019-05-02T16:25:56.807Z,10.90
2019-05-02T16:28:25.400Z,11.60
2019-05-02T16:30:57.015Z,11.93
2019-05-02T16:33:26.608Z,13.60
2019-05-02T16:35:56.137Z,12.80
2019-05-02T16:38:30.921Z,11.37
2019-05-02T16:40:56.995Z,12.97
2019-05-02T16:43:29.106Z,12.50
2019-05-02T16:45:59.307Z,13.75
2019-05-02T16:48:30.566Z,13.08
2019-05-02T16:51:02.189Z,13.20
2019-05-02T16:53:33.397Z,13.47
2019-05-02T16:56:06.992Z,14.10
2019-05-02T16:58:37.981Z,13.32
2019-05-02T17:01:06.238Z,14.05
2019-05-02T17:03:35.785Z,13.67
2019-05-02T17:06:06.528Z,14.90
2019-05-02T17:08:49.565Z,15.35
2019-05-02T17:11:27.804Z,14.10
2019-05-02T17:13:54.327Z,16.02
2019-05-02T17:16:24.005Z,13.10
2019-05-02T17:18:56.567Z,15.90
2019-05-02T17:21:27.019Z,14.93
2019-05-02T17:23:55.910Z,14.40
2019-05-02T17:26:25.518Z,17.07
2019-05-02T17:28:55.016Z,15.00
2019-05-02T17:31:24.754Z,16.20
2019-05-02T17:33:54.942Z,14.20
2019-05-02T17:36:28.666Z,14.98
2019-05-02T17:38:59.343Z,16.20
2019-05-02T17:41:27.057Z,15.53
2019-05-02T17:43:59.041Z,14.70
2019-05-02T17:46:27.811Z,12.90
2019-05-02T17:48:57.347Z,11.00
2019-05-02T17:51:37.725Z,11.90
2019-05-02T17:54:07.760Z,13.30
2019-05-02T17:56:37.309Z,11.27
2019-05-02T17:59:06.852Z,11.78
2019-05-02T18:01:41.660Z,13.77
2019-05-02T18:04:14.724Z,13.27
2019-05-02T18:06:42.036Z,13.07
2019-05-02T18:09:12.264Z,13.00
2019-05-02T18:11:42.393Z,11.33
2019-05-02T18:14:19.529Z,12.13
2019-05-02T18:16:47.048Z,13.57
2019-05-02T18:19:15.986Z,12.40
2019-05-02T18:21:46.122Z,11.03
2019-05-02T18:24:15.670Z,12.90
2019-05-02T18:26:45.190Z,11.83
2019-05-02T18:29:15.501Z,9.53
2019-05-02T18:31:47.637Z,7.30
2019-05-02T18:34:23.705Z,7.20
2019-05-02T18:36:48.200Z,7.53
2019-05-02T18:39:17.876Z,6.93
2019-05-02T18:41:47.375Z,6.20
2019-05-02T18:44:18.374Z,6.20
2019-05-02T18:46:48.272Z,6.42
2019-05-02T18:49:22.024Z,5.97
2019-05-02T18:51:53.754Z,5.70
2019-05-02T18:54:21.691Z,5.60
2019-05-02T18:56:55.254Z,5.80
2019-05-02T18:59:26.968Z,5.30
2019-05-02T19:01:56.200Z,5.63
2019-05-02T19:04:30.110Z,4.80
2019-05-02T19:06:56.417Z,4.90
2019-05-02T19:09:30.054Z,6.50
2019-05-02T19:12:05.238Z,5.30
2019-05-02T19:14:28.613Z,6.27
2019-05-02T19:17:02.925Z,6.70
2019-05-02T19:19:35.207Z,5.53
2019-05-02T19:22:02.615Z,5.95
2019-05-02T19:24:36.421Z,5.87
2019-05-02T19:27:04.212Z,6.57
2019-05-02T19:29:33.853Z,6.13
2019-05-02T19:32:06.347Z,6.60
2019-05-02T19:34:35.936Z,7.00
2019-05-02T19:37:05.521Z,6.60
2019-05-02T19:39:42.071Z,6.90
2019-05-02T19:42:07.422Z,6.58
2019-05-02T19:44:36.930Z,7.93
2019-05-02T19:47:08.440Z,7.30
2019-05-02T19:49:39.064Z,6.13
2019-05-02T19:52:08.732Z,5.40
2019-05-02T19:54:39.675Z,5.40
2019-05-02T19:57:11.711Z,6.27
2019-05-02T19:59:43.055Z,6.10
2019-05-02T20:02:12.381Z,6.87
2019-05-02T20:04:42.632Z,4.27
2019-05-02T20:07:13.142Z,4.30
2019-05-02T20:09:46.009Z,4.00
2019-05-02T20:12:15.723Z,3.57
2019-05-02T20:14:47.543Z,2.70
2019-05-02T20:17:20.311Z,3.60
2019-05-02T20:19:52.759Z,2.37
2019-05-02T20:22:22.458Z,3.20
2019-05-02T20:25:00.134Z,2.97
2019-05-02T20:27:24.232Z,2.80
2019-05-02T20:29:53.849Z,2.90
2019-05-02T20:32:23.365Z,2.63
2019-05-02T20:34:53.308Z,3.20
2019-05-02T20:37:22.817Z,2.57
2019-05-02T20:39:52.449Z,2.60
2019-05-02T20:42:22.186Z,2.47
2019-05-02T20:44:52.810Z,2.37
2019-05-02T20:47:24.832Z,2.67
2019-05-02T20:49:54.520Z,2.57
2019-05-02T20:52:24.110Z,2.43
2019-05-02T20:54:53.637Z,2.20
2019-05-02T20:57:23.217Z,2.10
2019-05-02T20:59:53.046Z,2.90
2019-05-02T21:02:23.695Z,2.43
2019-05-02T21:04:53.206Z,2.50
2019-05-02T21:07:45.133Z,2.40
2019-05-02T21:10:25.091Z,2.50
2019-05-02T21:12:54.667Z,3.30
2019-05-02T21:15:24.281Z,2.33
2019-05-02T21:17:53.786Z,2.90
2019-05-02T21:20:24.433Z,2.50
2019-05-02T21:22:54.067Z,2.98
2019-05-02T21:25:23.633Z,2.47
2019-05-02T21:27:53.230Z,2.50
2019-05-02T21:30:26.368Z,2.93
2019-05-02T21:32:55.971Z,3.27
2019-05-02T21:35:25.534Z,3.23
2019-05-02T21:37:55.205Z,2.80
2019-05-02T21:40:25.882Z,2.40
2019-05-02T21:42:55.585Z,2.77
2019-05-02T21:45:25.469Z,3.08
2019-05-02T21:47:55.060Z,2.33
2019-05-02T21:50:33.132Z,2.90
2019-05-02T21:53:23.044Z,2.60
2019-05-02T21:56:17.452Z,2.33
2019-05-02T21:59:04.116Z,2.30
2019-05-02T22:01:35.515Z,2.43
2019-05-02T22:04:05.232Z,2.50
2019-05-02T22:06:34.782Z,2.60
2019-05-02T22:09:06.655Z,2.62
2019-05-02T22:11:38.281Z,2.60
2019-05-02T22:14:07.845Z,2.70
2019-05-02T22:16:37.426Z,2.40
2019-05-02T22:19:07.206Z,2.60
2019-05-02T22:21:36.711Z,2.73
2019-05-02T22:24:11.244Z,2.60
2019-05-02T22:26:37.415Z,2.10
2019-05-02T22:29:06.996Z,2.50
2019-05-02T22:31:36.499Z,2.20
2019-05-02T22:34:06.093Z,2.63
2019-05-02T22:36:35.618Z,2.90
2019-05-02T22:39:31.542Z,2.10
2019-05-02T22:42:01.996Z,2.63
2019-05-02T22:44:32.484Z,3.27
2019-05-02T22:47:03.528Z,2.65
2019-05-02T22:49:33.518Z,2.90
2019-05-02T22:52:03.666Z,2.72
2019-05-02T22:54:34.060Z,3.00
2019-05-02T22:57:03.972Z,3.20
2019-05-02T22:59:33.786Z,2.00
2019-05-02T23:02:03.636Z,2.35
2019-05-02T23:04:33.604Z,2.47
2019-05-02T23:07:03.954Z,2.37
2019-05-02T23:09:33.601Z,3.25
2019-05-02T23:12:04.452Z,2.80
2019-05-02T23:14:33.958Z,3.40
2019-05-02T23:17:03.624Z,2.47
2019-05-02T23:19:33.734Z,3.27
2019-05-02T23:22:03.807Z,3.33
2019-05-02T23:24:52.023Z,2.50
2019-05-02T23:27:28.188Z,2.95
2019-05-02T23:29:57.769Z,2.60
2019-05-02T23:32:27.484Z,3.13
2019-05-02T23:34:57.086Z,3.13
2019-05-02T23:37:26.602Z,3.33
2019-05-02T23:39:56.112Z,1.97
2019-05-02T23:42:25.692Z,2.67
2019-05-02T23:44:55.209Z,2.17
2019-05-02T23:47:24.705Z,3.20
2019-05-02T23:49:54.208Z,2.67
2019-05-02T23:52:23.808Z,2.52
2019-05-02T23:54:53.358Z,2.73
2019-05-02T23:57:23.105Z,2.80
2019-05-02T23:59:52.569Z,2.87
